Dutse International Airport

DNDS · Jigawa, Nigeria

Storia di METAR DNDS · Dutse International Airport

Di seguito sono riportati i METAR degli ultimi giorni. Seleziona un anno per sfogliare i METAR più vecchi, dall'anno 2007 in poi.

5 marzo 2024

Tempo Codice Tempo meteorologico Temp. Vista Base nuvolosa Vento METAR/SPECI
01:00
V
26 °C 8 km - 030° 030° 3 kt METAR DNKN 050000Z 03003KT 8000 NSC 26/09 Q1013 NOSIG
00:00
V
26 °C 8 km - 080° 080° 3 kt METAR DNKN 042300Z 08003KT 8000 NSC 26/09 Q1014 NOSIG

4 marzo 2024

Tempo Codice Tempo meteorologico Temp. Vista Base nuvolosa Vento METAR/SPECI
22:00
V
28 °C 8 km - 360° 360° 0 kt METAR DNKN 042100Z 00000KT 8000 NSC 28/08 Q1013 NOSIG
21:00
M
28 °C 7 km - 360° 360° 0 kt METAR DNKN 042000Z 00000KT 7000 NSC 28/09 Q1013 NOSIG
19:00
M
32 °C 7 km - 040° 040° 4 kt METAR DNKN 041800Z 04004KT 7000 NSC 32/05 Q1012 NOSIG
18:00
M
36 °C 6 km - 050° 050° 7 kt METAR DNKN 041700Z 05007KT 6000 NSC 36/01 Q1011 NOSIG
17:00
M
38 °C 5 km - 060° 060° 8 kt METAR DNKN 041600Z 06008KT 5000 HZ NSC 38/02 Q1011 NOSIG
16:00
I
39 °C 4,5 km - 030° 030° 10 kt METAR DNKN 041500Z 03010KT 4500 HZ NSC 39/02 Q1011 NOSIG
15:00
I
38 °C 4 km - 090° 090° 55 kt METAR DNKN 041400Z 09055KT 4000 HZ NSC 38/02 Q1012 BECMNG 5000
14:00
I
38 °C 4 km - 030° 030° 5 kt METAR DNKN 041300Z 03005KT 4000 HZ NSC 38/01 Q1013 BECMNG 5000
13:00
I
37 °C 3 km - 030° 030° 3 kt METAR DNKN 041200Z 03003KT 3000 HZ NSC 37/03 Q1014 BECMNG 5000
12:00
I
35 °C 2,5 km - 050° 050° 6 kt METAR DNKN 041100Z 05006KT 2500 HZ NSC 35/09 Q1015 BECMG 3000
11:00
I
33 °C 2,5 km - 040° 040° 8 kt METAR DNKN 041000Z 04008KT 2500 HZ NSC 33/09 Q1015 BECMG 3000
10:00
I
31 °C 1,5 km - 060° 060° 6 kt METAR DNKN 040900Z 06006KT 1500 HZ NSC 31/11 Q1016 TEMPO 0800 DU
09:00
I
29 °C 1,5 km - 040° 040° 5 kt METAR DNKN 040800Z 04005KT 1500 HZ NSC 29/08 Q1015 TEMPO 1000
08:00
I
24 °C 3 km - 360° 360° 0 kt METAR DNKN 040700Z 00000KT 3000 HZ NSC 24/08 Q1015 NOSIG
06:00
M
22 °C 7 km - 270° 270° 3 kt METAR DNKN 040500Z 27003KT 7000 NSC 22/10 Q1013 NOSIG
05:00
M
23 °C 7 km - 270° 270° 3 kt METAR DNKN 040400Z 27003KT 7000 NSC 23/10 Q1013 NOSIG
04:00
M
24 °C 7 km - 360° 360° 0 kt METAR DNKN 040300Z 00000KT 7000 NSC 24/07 Q1013 NOSIG
01:00
M
26 °C 7 km - 330° 330° 3 kt METAR DNKN 040000Z 33003KT 7000 NSC 26/07 Q1014 NOSIG
00:00
M
27 °C 7 km - 360° 360° 0 kt METAR DNKN 032300Z 00000KT 7000 NSC 27/07 Q1014 NOSIG

3 marzo 2024

Tempo Codice Tempo meteorologico Temp. Vista Base nuvolosa Vento METAR/SPECI
23:00
M
27 °C 7 km - 360° 360° 0 kt METAR DNKN 032200Z 00000KT 7000 NSC 27/09 Q1014 NOSIG
22:00
M
28 °C 7 km - 360° 360° 0 kt METAR DNKN 032100Z 00000KT 7000 NSC 28/08 Q1014 NOSIG
21:00
M
29 °C 7 km - 360° 360° 0 kt METAR DNKN 032000Z 00000KT 7000 NSC 29/08 Q1014 NOSIG
20:00
M
31 °C 6 km - 060° 060° 3 kt METAR DNKN 031900Z 06003KT 6000 NSC 31/02 Q1013 NOSIG
19:00
M
34 °C 6 km - 050° 050° 4 kt METAR DNKN 031800Z 05004KT 6000 NSC 34/06 Q1013 NOSIG
18:00
M
36 °C 5 km - 040° 040° 6 kt METAR DNKN 031700Z 04006KT 5000 HZ NSC 36/03 Q1013 NOSIG
17:00
M
36 °C 5 km - 030° 030° 6 kt METAR DNKN 031600Z 03006KT 5000 HZ NSC 36/01 Q1012 NOSIG
16:00
I
38 °C 4 km - 040° 040° 3 kt METAR DNKN 031500Z 04003KT 4000 HZ NSC 38/00 Q1012 BECMG 5000
15:00
I
37 °C 4 km - 010° 010° 5 kt METAR DNKN 031400Z 01005KT 4000 HZ NSC 37/02 Q1013 BECMG 5000
14:00
I
37 °C 3 km - 070° 070° 6 kt METAR DNKN 031300Z 07006KT 3000 HZ NSC 37/02 Q1014 TEMPO 1500
13:00
I
36 °C 3 km - 330° 330° 4 kt METAR DNKN 031200Z 33004KT 3000 HZ NSC 36/03 Q1015 TEMPO 1500
12:00
I
34 °C 3 km - 050° 050° 5 kt METAR DNKN 031100Z 05005KT 3000 HZ NSC 34/02 Q1016 TEMPO 1500
10:00
M
29 °C 6 km - 050° 050° 10 kt METAR DNKN 030900Z 05010KT 6000 NSC 29/M03 Q1017 NOSIG
09:00
M
25 °C 6 km - 030° 030° 5 kt METAR DNKN 030800Z 03005KT 6000 NSC 25/01 Q1017 NOSIG
08:00
M
21 °C 6 km - 360° 360° 0 kt METAR DNKN 030700Z 00000KT 6000 NSC 21/04 Q1016 NOSIG
07:00
V
20 °C 8 km - 360° 360° 0 kt METAR DNKN 030600Z 00000KT 8000 NSC 20/05 Q1015 NOSIG
06:00
V
21 °C 10 km+ - 310° 310° 3 kt METAR DNKN 030500Z 31003KT CAVOK 21/05 Q1014 NOSIG
05:00
V
22 °C 10 km+ - 330° 330° 3 kt METAR DNKN 030400Z 33003KT CAVOK 22/05 Q1014 NOSIG
04:00
V
23 °C 10 km+ - 360° 360° 0 kt METAR DNKN 030300Z CALM CAVOK 23/06 Q1014 NOSIG
03:00
V
24 °C 10 km+ - 070° 070° 4 kt METAR DNKN 030200Z 07004KT CAVOK 24/06 Q1014 NOSIG
02:00
V
24 °C 10 km+ - 360° 360° 0 kt METAR DNKN 030100Z 00000KT CAVOK 24/06 Q1015 NOSIG
01:00
V
25 °C 10 km+ - 360° 360° 0 kt METAR DNKN 030000Z 00000KT CAVOK 25/06 Q1016 NOSIG
00:00
V
25 °C 10 km+ - 360° 360° 0 kt METAR DNKN 022300Z 00000KT CAVOK 25/07 Q1016 NOSIG

2 marzo 2024

Tempo Codice Tempo meteorologico Temp. Vista Base nuvolosa Vento METAR/SPECI
23:00
V
27 °C 10 km+ - 360° 360° 0 kt METAR DNKN 022200Z 00000KT CAVOK 27/05 Q1016 NOSIG
22:00
V
28 °C 10 km+ - 040° 040° 5 kt METAR DNKN 022100Z 04005KT CAVOK 28/03 Q1015 NOSIG
21:00
V
30 °C 10 km+ - 360° 360° 0 kt METAR DNKN 022000Z 00000KT CAVOK 30/04 Q1015 NOSIG
20:00
M
32 °C 7 km - 010° 010° 3 kt METAR DNKN 021900Z 01003KT 7000 NSC 32/02 Q1014 NOSIG
19:00
M
35 °C 7 km - 060° 060° 5 kt METAR DNKN 021800Z 06005KT 7000 NSC 35/M03 Q1013 NOSIG
18:00
M
36 °C 7 km - 060° 060° 8 kt METAR DNKN 021700Z 06008KT 7000 NSC 36/M03 Q1012 NOSIG
17:00
U
37 °C 0 m - 080° 080° 10 kt METAR DNKN 021600Z 08010KT NSC 37/M03 Q1012 NOSIG
16:00
M
37 °C 6 km - 040° 040° 9 kt METAR DNKN 021500Z 04009KT 6000 NSC 37/M03 Q1012 NOSIG
15:00
M
37 °C 6 km - 040° 040° 6 kt METAR DNKN 021400Z 04006KT 6000 NSC 37/M03 Q1013 NOSIG
14:00
M
36 °C 6 km - 060° 060° 9 kt METAR DNKN 021300Z 06009KT 6000 NSC 36/02 Q1013 NOSIG
13:00
M
35 °C 6 km - 030° 030° 4 kt METAR DNKN 021200Z 03004KT 6000 NSC 35/01 Q1015 NOSIG
12:00
M
32 °C 6 km - 060° 060° 5 kt METAR DNKN 021100Z 06005KT 6000 NSC 32/00 Q1016 NOSIG
11:00
M
30 °C 6 km - 050° 050° 6 kt METAR DNKN 021000Z 05006KT 6000 NSC 30/M03 Q1017 NOSIG
10:00
M
29 °C 6 km - 050° 050° 8 kt METAR DNKN 020900Z 05008KT 6000 NSC 29/M07 Q1017 NOSIG
09:00
M
23 °C 6 km - 030° 030° 7 kt METAR DNKN 020800Z 03007KT 6000 NSC 23/M08 Q1016 NOSIG
08:00
M
23 °C 6 km - Var Var 2 kt METAR DNKN 020700Z VRB02KT 6000 HZ NSC 23/04 Q1015 NOSIG